Time;durP1;ratioP1;P1;durP2;ratioP2;P2;SDS_P1;SDS_P2;PMS_P1;PMS_P2;Temp;Humidity;BMP_temperature;BMP_pressure;BME280_temperature;BME280_humidity;BME280_pressure;Samples;Min_cycle;Max_cycle;Signal;HPM_P1;HPM_P2
2023/05/04 00:00:32;;;;;;;;;;;4.90;57.40;;;;;;4111091;28;20001;-84
2023/05/04 00:02:33;;;;;;;;;;;4.90;57.60;;;;;;4110817;28;19953;-84
2023/05/04 00:04:37;;;;;;;;;;;4.80;57.80;;;;;;4120641;28;19928;-84
2023/05/04 00:06:37;;;;;;;;;;;4.80;57.90;;;;;;4121816;28;19933;-84
2023/05/04 00:08:38;;;;;;;;;;;4.80;57.60;;;;;;4113547;28;19910;-83
2023/05/04 00:10:39;;;;;;;;;;;4.80;57.70;;;;;;4113109;28;19914;-83
2023/05/04 00:12:41;;;;;;;;;;;4.80;57.60;;;;;;4113587;28;19918;-83
2023/05/04 00:14:41;;;;;;;;;;;4.80;57.80;;;;;;4112048;28;20422;-84
2023/05/04 00:16:42;;;;;;;;;;;4.70;57.90;;;;;;4120085;28;19914;-84
2023/05/04 00:18:43;;;;;;;;;;;4.70;58.10;;;;;;4121062;28;20447;-83
2023/05/04 00:20:44;;;;;;;;;;;4.70;58.20;;;;;;4110900;28;19918;-83
2023/05/04 00:22:46;;;;;;;;;;;4.70;58.20;;;;;;4130012;28;19919;-83
2023/05/04 00:24:47;;;;;;;;;;;4.60;58.20;;;;;;4114484;28;19918;-81
2023/05/04 00:26:47;;;;;;;;;;;4.60;58.20;;;;;;4117222;28;20295;-83
2023/05/04 00:28:48;;;;;;;;;;;4.60;57.90;;;;;;4119168;28;19910;-84
2023/05/04 00:30:52;;;;;;;;;;;4.60;57.80;;;;;;4123372;28;20005;-83
2023/05/04 00:32:52;;;;;;;;;;;4.50;57.80;;;;;;4127930;28;19941;-84
2023/05/04 00:34:53;;;;;;;;;;;4.50;57.80;;;;;;4111098;28;19985;-83
2023/05/04 00:36:55;;;;;;;;;;;4.60;57.70;;;;;;4124212;28;19917;-83
2023/05/04 00:38:55;;;;;;;;;;;4.50;57.70;;;;;;4113285;28;19922;-84
2023/05/04 00:40:57;;;;;;;;;;;4.40;57.60;;;;;;4110911;28;19922;-83
2023/05/04 00:42:58;;;;;;;;;;;4.40;57.70;;;;;;4103387;28;19918;-83
2023/05/04 00:44:59;;;;;;;;;;;4.40;57.80;;;;;;4119482;28;19976;-83
2023/05/04 00:47:01;;;;;;;;;;;4.40;57.80;;;;;;4123421;28;19916;-84
2023/05/04 00:49:02;;;;;;;;;;;4.40;57.90;;;;;;4122514;28;20004;-84
2023/05/04 00:51:02;;;;;;;;;;;4.40;57.90;;;;;;4109611;28;20000;-83
2023/05/04 00:53:06;;;;;;;;;;;4.30;57.90;;;;;;4122771;28;19922;-83
2023/05/04 00:55:07;;;;;;;;;;;4.30;57.90;;;;;;4119034;28;20261;-85
2023/05/04 00:57:07;;;;;;;;;;;4.30;58.00;;;;;;4119326;28;19937;-84
2023/05/04 00:59:08;;;;;;;;;;;4.30;58.00;;;;;;4126229;28;19959;-84
2023/05/04 01:01:09;;;;;;;;;;;4.30;58.10;;;;;;4120133;28;19960;-83
2023/05/04 01:03:10;;;;;;;;;;;4.30;57.90;;;;;;4123578;28;19910;-83
2023/05/04 01:05:12;;;;;;;;;;;4.30;58.20;;;;;;4126477;28;20104;-84
2023/05/04 01:07:18;;;;;;;;;;;4.30;58.00;;;;;;4120961;28;19913;-84
2023/05/04 01:09:37;;;;;;;;;;;4.40;58.00;;;;;;4127672;28;19941;-83
2023/05/04 01:11:56;;;;;;;;;;;4.20;57.90;;;;;;4129916;28;19922;-83
2023/05/04 01:13:58;;;;;;;;;;;4.20;58.10;;;;;;4126597;28;19909;-84
2023/05/04 01:15:58;;;;;;;;;;;4.20;58.20;;;;;;4116036;28;19918;-83
2023/05/04 01:18:19;;;;;;;;;;;4.20;58.10;;;;;;4122208;28;19928;-83
2023/05/04 01:20:19;;;;;;;;;;;4.20;58.50;;;;;;4120649;28;19914;-84
2023/05/04 01:22:21;;;;;;;;;;;4.10;58.40;;;;;;4108714;28;19914;-83
2023/05/04 01:24:42;;;;;;;;;;;4.10;58.30;;;;;;4112617;28;19962;-83
2023/05/04 01:27:04;;;;;;;;;;;4.20;58.40;;;;;;4125043;28;19910;-83
2023/05/04 01:29:29;;;;;;;;;;;4.10;58.20;;;;;;4119496;28;19993;-84
2023/05/04 01:31:51;;;;;;;;;;;4.10;58.10;;;;;;4122911;28;20012;-83
2023/05/04 01:34:12;;;;;;;;;;;4.00;58.10;;;;;;4118600;28;19921;-83
2023/05/04 01:36:33;;;;;;;;;;;4.00;58.10;;;;;;4118715;28;19917;-83
2023/05/04 01:38:54;;;;;;;;;;;4.00;58.10;;;;;;4126159;28;19917;-83
2023/05/04 01:41:15;;;;;;;;;;;3.90;58.00;;;;;;4119825;28;19929;-82
2023/05/04 01:43:35;;;;;;;;;;;3.90;57.90;;;;;;4119985;28;19913;-83
2023/05/04 01:45:56;;;;;;;;;;;3.90;58.00;;;;;;4119026;28;19929;-83
2023/05/04 01:48:28;;;;;;;;;;;3.80;58.00;;;;;;4173768;23;20817;-83
2023/05/04 01:50:52;;;;;;;;;;;3.80;58.00;;;;;;4141276;28;19956;-84
2023/05/04 01:53:19;;;;;;;;;;;3.80;58.20;;;;;;4141247;28;19996;-84
2023/05/04 01:55:45;;;;;;;;;;;3.80;58.30;;;;;;4151528;28;19921;-85
2023/05/04 01:58:31;;;;;;;;;;;3.80;58.50;;;;;;4163332;28;19909;-83
2023/05/04 02:01:00;;;;;;;;;;;3.60;58.50;;;;;;4136199;28;19926;-85
2023/05/04 02:03:53;;;;;;;;;;;3.60;58.40;;;;;;4152487;28;20449;-84
2023/05/04 02:06:29;;;;;;;;;;;3.70;58.70;;;;;;4137246;28;19917;-85
2023/05/04 02:09:03;;;;;;;;;;;;;;;;;;;;;
2023/05/04 02:11:25;;;;;;;;;;;3.60;58.60;;;;;;4142979;28;19922;-84
2023/05/04 02:16:20;;;;;;;;;;;3.50;58.70;;;;;;4145393;28;19922;-83
2023/05/04 02:18:21;;;;;;;;;;;3.40;58.50;;;;;;4138616;28;19983;-85
2023/05/04 02:20:48;;;;;;;;;;;3.50;58.40;;;;;;4127478;28;19945;-84
2023/05/04 02:23:09;;;;;;;;;;;3.40;58.40;;;;;;4129743;28;19926;-83
2023/05/04 02:25:35;;;;;;;;;;;3.50;58.40;;;;;;4138448;28;19949;-83
2023/05/04 02:27:46;;;;;;;;;;;3.30;58.30;;;;;;4124713;28;20397;-83
2023/05/04 02:29:58;;;;;;;;;;;3.30;58.20;;;;;;4122454;28;19988;-85
2023/05/04 02:32:09;;;;;;;;;;;3.40;58.20;;;;;;4142942;28;20333;-84
2023/05/04 02:34:12;;;;;;;;;;;3.30;58.30;;;;;;4124729;28;19945;-84
2023/05/04 02:36:36;;;;;;;;;;;3.30;58.20;;;;;;4127718;28;19918;-85
2023/05/04 02:38:50;;;;;;;;;;;3.20;58.10;;;;;;4142379;28;19964;-84
2023/05/04 02:41:02;;;;;;;;;;;3.20;58.30;;;;;;4125453;28;20446;-85
2023/05/04 02:43:11;;;;;;;;;;;3.20;58.20;;;;;;4126646;28;19914;-84
2023/05/04 02:45:20;;;;;;;;;;;3.10;58.20;;;;;;4143249;28;19948;-83
2023/05/04 02:47:40;;;;;;;;;;;3.10;58.40;;;;;;4143273;28;20053;-84
2023/05/04 02:49:49;;;;;;;;;;;3.10;58.60;;;;;;4122835;28;19921;-83
2023/05/04 02:51:56;;;;;;;;;;;3.10;58.80;;;;;;4125140;28;19922;-84
2023/05/04 02:54:03;;;;;;;;;;;3.10;59.00;;;;;;4130423;28;19914;-84
2023/05/04 02:56:25;;;;;;;;;;;3.00;59.10;;;;;;4126513;28;19918;-84
2023/05/04 02:58:39;;;;;;;;;;;3.00;59.20;;;;;;4140275;28;19914;-84
2023/05/04 03:01:03;;;;;;;;;;;3.10;59.20;;;;;;4128270;28;19930;-83
2023/05/04 03:03:27;;;;;;;;;;;3.00;59.10;;;;;;4124214;28;20409;-83
2023/05/04 03:05:44;;;;;;;;;;;;;;;;;;;;;
2023/05/04 03:07:59;;;;;;;;;;;3.00;59.10;;;;;;4146317;28;19971;-83
2023/05/04 03:10:23;;;;;;;;;;;;;;;;;;;;;
2023/05/04 03:12:29;;;;;;;;;;;3.00;59.30;;;;;;4126268;28;19917;-85
2023/05/04 03:14:42;;;;;;;;;;;2.90;59.40;;;;;;4155915;28;19917;-84
2023/05/04 03:16:51;;;;;;;;;;;3.00;59.60;;;;;;4139730;28;19914;-83
2023/05/04 03:19:00;;;;;;;;;;;3.00;59.60;;;;;;4140264;28;20402;-83
2023/05/04 03:21:06;;;;;;;;;;;3.00;59.60;;;;;;4123206;28;19918;-84
2023/05/04 03:23:15;;;;;;;;;;;3.00;59.50;;;;;;4125341;28;19921;-84
2023/05/04 03:25:28;;;;;;;;;;;3.00;59.50;;;;;;4140347;28;20264;-84
2023/05/04 03:27:32;;;;;;;;;;;3.00;59.60;;;;;;4132662;28;20680;-83
2023/05/04 03:29:41;;;;;;;;;;;3.00;59.70;;;;;;4140031;28;19925;-84
2023/05/04 03:31:55;;;;;;;;;;;3.00;59.80;;;;;;4137384;28;19924;-83
2023/05/04 03:34:20;;;;;;;;;;;3.00;59.90;;;;;;4141793;28;20364;-84
2023/05/04 03:36:33;;;;;;;;;;;3.10;60.10;;;;;;4137910;28;19929;-85
2023/05/04 03:38:46;;;;;;;;;;;3.00;60.10;;;;;;4142921;28;19917;-85
2023/05/04 03:43:35;;;;;;;;;;;3.10;60.40;;;;;;4160469;28;19959;-85
2023/05/04 03:45:42;;;;;;;;;;;3.00;60.30;;;;;;4146320;28;19906;-84
2023/05/04 03:48:05;;;;;;;;;;;3.10;60.20;;;;;;4159914;28;19932;-85
2023/05/04 03:50:43;;;;;;;;;;;3.20;60.30;;;;;;4158435;28;19939;-85
2023/05/04 03:53:10;;;;;;;;;;;3.10;59.90;;;;;;4159183;28;19944;-85
2023/05/04 03:55:39;;;;;;;;;;;3.10;60.00;;;;;;4157133;28;19960;-85
2023/05/04 03:58:05;;;;;;;;;;;3.10;59.90;;;;;;4142500;28;19917;-85
2023/05/04 04:00:41;;;;;;;;;;;3.30;60.30;;;;;;4140845;28;19995;-82
2023/05/04 04:03:04;;;;;;;;;;;3.30;60.50;;;;;;4141839;28;19929;-83
2023/05/04 04:05:26;;;;;;;;;;;3.30;60.40;;;;;;4145249;28;19914;-84
2023/05/04 04:07:47;;;;;;;;;;;3.30;60.40;;;;;;4142337;28;19977;-84
2023/05/04 04:10:11;;;;;;;;;;;3.30;60.70;;;;;;4148035;28;19909;-84
2023/05/04 04:12:35;;;;;;;;;;;3.40;60.80;;;;;;4144378;28;19922;-84
2023/05/04 04:15:05;;;;;;;;;;;3.30;60.90;;;;;;4144534;28;19914;-84
2023/05/04 04:17:29;;;;;;;;;;;3.40;61.10;;;;;;4139347;28;19940;-83
2023/05/04 04:20:01;;;;;;;;;;;3.50;61.40;;;;;;4142707;28;19922;-84
2023/05/04 04:22:28;;;;;;;;;;;3.50;61.60;;;;;;4153215;28;20000;-83
2023/05/04 04:24:52;;;;;;;;;;;3.60;61.90;;;;;;4144639;28;19960;-84
2023/05/04 04:27:15;;;;;;;;;;;3.60;62.20;;;;;;4142724;28;20302;-84
2023/05/04 04:30:11;;;;;;;;;;;3.70;62.40;;;;;;4145587;28;20375;-84
2023/05/04 04:32:25;;;;;;;;;;;3.70;62.40;;;;;;4142115;28;19953;-84
2023/05/04 04:34:33;;;;;;;;;;;3.70;62.40;;;;;;4141416;28;19914;-85
2023/05/04 04:36:39;;;;;;;;;;;3.80;62.50;;;;;;4130296;28;19929;-83
2023/05/04 04:39:07;;;;;;;;;;;3.90;62.70;;;;;;4130082;28;19921;-84
2023/05/04 04:41:35;;;;;;;;;;;3.90;62.60;;;;;;4142952;28;19925;-84
2023/05/04 04:44:02;;;;;;;;;;;4.00;62.80;;;;;;4143333;28;19921;-84
2023/05/04 04:46:27;;;;;;;;;;;4.10;62.90;;;;;;4122679;28;19929;-84
2023/05/04 04:48:36;;;;;;;;;;;4.10;62.90;;;;;;4122882;28;19921;-83
2023/05/04 04:50:57;;;;;;;;;;;4.20;62.90;;;;;;4131227;28;20005;-83
2023/05/04 04:53:00;;;;;;;;;;;4.30;62.90;;;;;;4145751;28;20263;-84
2023/05/04 04:55:04;;;;;;;;;;;4.40;63.10;;;;;;4130321;28;19918;-84
2023/05/04 04:57:21;;;;;;;;;;;4.40;63.10;;;;;;4129593;28;19918;-84
2023/05/04 04:59:41;;;;;;;;;;;4.50;63.30;;;;;;4144738;28;19917;-84
2023/05/04 05:01:58;;;;;;;;;;;4.50;63.30;;;;;;4144416;28;19976;-84
2023/05/04 05:04:18;;;;;;;;;;;4.80;63.10;;;;;;4141760;28;19922;-83
2023/05/04 05:06:47;;;;;;;;;;;4.70;63.20;;;;;;4130024;28;20383;-85
2023/05/04 05:09:13;;;;;;;;;;;4.80;63.50;;;;;;4113573;28;19925;-85
2023/05/04 05:11:25;;;;;;;;;;;4.90;63.60;;;;;;4141822;28;19913;-83
2023/05/04 05:13:39;;;;;;;;;;;4.90;63.70;;;;;;4163506;28;19932;-82
2023/05/04 05:15:47;;;;;;;;;;;5.00;64.30;;;;;;4137325;28;19926;-84
2023/05/04 05:18:07;;;;;;;;;;;5.20;64.50;;;;;;4136795;28;19913;-83
2023/05/04 05:20:16;;;;;;;;;;;5.20;64.60;;;;;;4124691;28;19957;-83
2023/05/04 05:22:24;;;;;;;;;;;5.20;65.80;;;;;;4136957;28;19925;-84
2023/05/04 05:24:28;;;;;;;;;;;5.40;67.50;;;;;;4125535;28;20118;-84
2023/05/04 05:26:42;;;;;;;;;;;5.40;68.10;;;;;;4135598;28;19984;-84
2023/05/04 05:28:51;;;;;;;;;;;5.50;67.80;;;;;;4142270;28;19914;-85
2023/05/04 05:31:10;;;;;;;;;;;5.60;67.90;;;;;;4136122;28;19973;-85
2023/05/04 05:33:27;;;;;;;;;;;5.70;68.30;;;;;;4128198;28;20634;-84
2023/05/04 05:35:42;;;;;;;;;;;5.80;68.20;;;;;;4139621;28;19917;-84
2023/05/04 05:38:01;;;;;;;;;;;5.90;68.50;;;;;;4128536;28;20003;-85
2023/05/04 05:40:14;;;;;;;;;;;5.90;68.60;;;;;;4142506;28;20416;-84
2023/05/04 05:42:52;;;;;;;;;;;5.90;69.90;;;;;;4137246;28;19926;-84
2023/05/04 05:44:56;;;;;;;;;;;6.00;70.00;;;;;;4135245;28;19967;-83
2023/05/04 05:47:12;;;;;;;;;;;6.00;69.70;;;;;;4141402;28;19924;-86
2023/05/04 05:49:15;;;;;;;;;;;6.10;69.80;;;;;;4128636;28;19953;-84
2023/05/04 05:51:22;;;;;;;;;;;6.10;69.70;;;;;;4125486;28;19980;-83
2023/05/04 05:53:34;;;;;;;;;;;6.10;70.30;;;;;;4142993;28;20015;-84
2023/05/04 05:55:55;;;;;;;;;;;;;;;;;;;;;
2023/05/04 05:58:16;;;;;;;;;;;6.20;71.60;;;;;;4137343;28;19956;-84
2023/05/04 06:00:47;;;;;;;;;;;6.30;71.40;;;;;;4135081;28;19913;-83
2023/05/04 06:03:17;;;;;;;;;;;6.30;71.40;;;;;;4135268;28;19965;-83
2023/05/04 06:05:44;;;;;;;;;;;6.40;71.10;;;;;;4138601;28;19920;-84
2023/05/04 06:10:30;;;;;;;;;;;6.40;72.30;;;;;;4136214;28;19929;-84
2023/05/04 06:12:51;;;;;;;;;;;6.50;72.50;;;;;;4155132;28;19913;-84
2023/05/04 06:15:13;;;;;;;;;;;6.60;72.60;;;;;;4140468;28;19921;-84
2023/05/04 06:17:42;;;;;;;;;;;6.60;73.60;;;;;;4139320;28;19925;-84
2023/05/04 06:20:17;;;;;;;;;;;6.80;73.80;;;;;;4139003;28;19914;-85
2023/05/04 06:22:41;;;;;;;;;;;6.70;73.80;;;;;;4141100;28;19922;-85
2023/05/04 06:25:28;;;;;;;;;;;6.80;74.10;;;;;;4142494;28;19921;-83
2023/05/04 06:28:01;;;;;;;;;;;6.90;74.30;;;;;;4142654;28;20123;-85
2023/05/04 06:30:25;;;;;;;;;;;7.10;74.60;;;;;;4135867;28;20319;-84
2023/05/04 06:32:41;;;;;;;;;;;7.20;74.60;;;;;;4138886;28;19921;-84
2023/05/04 06:34:49;;;;;;;;;;;7.10;74.90;;;;;;4124545;28;19954;-83
2023/05/04 06:37:06;;;;;;;;;;;7.20;75.00;;;;;;4139949;28;20494;-83
2023/05/04 06:39:12;;;;;;;;;;;7.30;74.30;;;;;;4122229;28;20044;-85
2023/05/04 06:41:24;;;;;;;;;;;7.40;75.10;;;;;;4120009;28;19973;-83
2023/05/04 06:43:33;;;;;;;;;;;7.50;75.10;;;;;;4120071;28;20395;-85
2023/05/04 06:45:43;;;;;;;;;;;7.40;74.90;;;;;;4136315;28;19944;-84
2023/05/04 06:47:49;;;;;;;;;;;7.50;74.90;;;;;;4132310;28;19961;-85
2023/05/04 06:50:08;;;;;;;;;;;7.40;74.60;;;;;;4146344;28;19918;-83
2023/05/04 06:52:31;;;;;;;;;;;7.60;74.80;;;;;;4131605;28;19926;-85
2023/05/04 06:55:12;;;;;;;;;;;7.70;74.80;;;;;;4144236;28;19930;-83
2023/05/04 06:57:19;;;;;;;;;;;7.70;75.30;;;;;;4138122;28;19913;-83
2023/05/04 06:59:25;;;;;;;;;;;7.80;76.10;;;;;;4124010;28;19921;-85
2023/05/04 07:01:26;;;;;;;;;;;7.90;76.30;;;;;;4126138;28;20032;-84
2023/05/04 07:03:27;;;;;;;;;;;8.00;76.40;;;;;;4139360;28;19925;-84
2023/05/04 07:05:52;;;;;;;;;;;8.10;76.20;;;;;;4117478;28;19922;-84
2023/05/04 07:07:58;;;;;;;;;;;8.10;75.50;;;;;;4126924;28;19914;-85
2023/05/04 07:10:15;;;;;;;;;;;8.30;75.60;;;;;;4138939;28;20283;-84
2023/05/04 07:12:40;;;;;;;;;;;8.40;75.70;;;;;;4138879;28;19953;-84
2023/05/04 07:14:47;;;;;;;;;;;8.60;75.50;;;;;;4143097;28;20462;-84
2023/05/04 07:17:20;;;;;;;;;;;8.60;74.20;;;;;;4127649;28;19925;-84
2023/05/04 07:19:27;;;;;;;;;;;8.80;73.30;;;;;;4122604;28;19926;-84
2023/05/04 07:21:33;;;;;;;;;;;8.80;72.10;;;;;;4159095;28;20011;-85
2023/05/04 07:23:44;;;;;;;;;;;9.00;72.10;;;;;;4126530;28;19918;-85
2023/05/04 07:25:56;;;;;;;;;;;9.00;72.10;;;;;;4141016;28;19914;-84
2023/05/04 07:28:16;;;;;;;;;;;9.10;72.10;;;;;;4139717;28;19922;-85
2023/05/04 07:30:24;;;;;;;;;;;9.20;71.70;;;;;;4137758;28;19917;-83
2023/05/04 07:32:33;;;;;;;;;;;9.30;71.70;;;;;;4151854;28;19921;-83
2023/05/04 07:34:57;;;;;;;;;;;9.30;71.70;;;;;;4095728;28;19922;-85
2023/05/04 07:37:10;;;;;;;;;;;9.40;71.10;;;;;;4114781;28;19933;-84
2023/05/04 07:39:22;;;;;;;;;;;9.50;71.20;;;;;;4200053;23;19940;-86
2023/05/04 07:41:41;;;;;;;;;;;9.60;71.10;;;;;;4111051;28;19972;-85
2023/05/04 07:43:44;;;;;;;;;;;9.80;71.00;;;;;;4128821;28;19949;-84
2023/05/04 07:46:34;;;;;;;;;;;9.90;71.00;;;;;;4085003;28;20307;-85
2023/05/04 07:48:50;;;;;;;;;;;9.90;70.90;;;;;;4175713;23;19931;-85
2023/05/04 07:53:00;;;;;;;;;;;10.20;69.70;;;;;;4143543;28;19934;-84
2023/05/04 07:55:00;;;;;;;;;;;10.20;68.20;;;;;;4145996;28;20004;-84
2023/05/04 07:57:02;;;;;;;;;;;10.20;68.30;;;;;;4126222;28;19917;-83
2023/05/04 07:59:03;;;;;;;;;;;10.30;67.40;;;;;;4127379;28;19922;-83
2023/05/04 08:01:03;;;;;;;;;;;10.30;66.60;;;;;;4129094;28;19969;-83
2023/05/04 08:03:04;;;;;;;;;;;10.30;66.60;;;;;;4110295;28;19921;-84
2023/05/04 08:05:10;;;;;;;;;;;10.40;66.20;;;;;;4128528;28;19914;-84
2023/05/04 08:07:10;;;;;;;;;;;10.40;66.40;;;;;;4119624;28;20307;-84
2023/05/04 08:09:11;;;;;;;;;;;10.40;66.30;;;;;;4132915;28;19914;-83
2023/05/04 08:11:12;;;;;;;;;;;10.30;66.00;;;;;;4140911;28;20354;-83
2023/05/04 08:13:12;;;;;;;;;;;10.50;66.00;;;;;;4130779;28;19921;-84
2023/05/04 08:15:13;;;;;;;;;;;10.50;65.60;;;;;;4147134;28;19918;-83
2023/05/04 08:17:14;;;;;;;;;;;10.50;65.70;;;;;;4149776;28;19920;-84
2023/05/04 08:19:15;;;;;;;;;;;10.50;65.70;;;;;;4151114;28;19913;-84
2023/05/04 08:21:15;;;;;;;;;;;10.60;65.60;;;;;;4149340;28;20379;-83
2023/05/04 08:23:17;;;;;;;;;;;10.60;66.00;;;;;;4130705;28;19918;-84
2023/05/04 08:25:17;;;;;;;;;;;10.50;65.70;;;;;;4147856;28;19913;-84
2023/05/04 08:27:18;;;;;;;;;;;10.60;65.60;;;;;;4130501;28;19920;-84
2023/05/04 08:29:20;;;;;;;;;;;10.60;65.60;;;;;;4130523;28;19922;-84
2023/05/04 08:31:20;;;;;;;;;;;10.60;65.80;;;;;;4129827;28;19940;-84
2023/05/04 08:33:21;;;;;;;;;;;10.60;65.90;;;;;;4147382;28;19968;-85
2023/05/04 08:35:42;;;;;;;;;;;10.70;66.10;;;;;;4145561;28;19956;-84
2023/05/04 08:37:43;;;;;;;;;;;10.80;66.80;;;;;;4126549;28;19918;-84
2023/05/04 08:39:57;;;;;;;;;;;10.70;66.40;;;;;;4118838;28;19922;-85
2023/05/04 08:42:30;;;;;;;;;;;10.80;66.30;;;;;;4126762;28;20547;-85
2023/05/04 08:44:51;;;;;;;;;;;10.90;66.20;;;;;;4130965;28;19918;-84
2023/05/04 08:46:52;;;;;;;;;;;10.90;64.30;;;;;;4129445;28;20082;-85
2023/05/04 08:49:12;;;;;;;;;;;10.90;64.20;;;;;;4149725;28;19922;-84
2023/05/04 08:51:23;;;;;;;;;;;10.90;63.80;;;;;;4133507;28;19924;-85
2023/05/04 08:53:45;;;;;;;;;;;11.00;63.90;;;;;;4136467;28;19918;-83
2023/05/04 08:56:08;;;;;;;;;;;10.90;62.20;;;;;;4142105;28;19946;-83
2023/05/04 08:58:28;;;;;;;;;;;10.90;62.60;;;;;;4144554;28;20001;-85
2023/05/04 09:00:49;;;;;;;;;;;11.00;63.90;;;;;;4144144;28;19917;-84
2023/05/04 09:03:11;;;;;;;;;;;11.10;64.60;;;;;;4147519;28;20017;-84
2023/05/04 09:05:31;;;;;;;;;;;11.10;64.30;;;;;;4129013;28;19929;-83
2023/05/04 09:07:52;;;;;;;;;;;11.20;64.00;;;;;;4135348;28;19921;-84
2023/05/04 09:10:13;;;;;;;;;;;11.30;63.90;;;;;;4134937;28;19922;-84
2023/05/04 09:12:33;;;;;;;;;;;11.30;63.50;;;;;;4134039;28;19913;-84
2023/05/04 09:14:41;;;;;;;;;;;11.40;63.40;;;;;;4141973;28;19906;-85
2023/05/04 09:16:42;;;;;;;;;;;11.40;62.80;;;;;;4145873;28;19989;-83
2023/05/04 09:18:43;;;;;;;;;;;11.50;62.90;;;;;;4162276;28;19917;-84
2023/05/04 09:20:45;;;;;;;;;;;11.50;61.20;;;;;;4148982;28;19949;-82
2023/05/04 09:22:46;;;;;;;;;;;11.40;61.30;;;;;;4135810;28;19915;-83
2023/05/04 09:24:47;;;;;;;;;;;11.40;60.90;;;;;;4150535;28;19932;-83
2023/05/04 09:26:52;;;;;;;;;;;11.40;61.60;;;;;;4132614;28;20016;-83
2023/05/04 09:28:53;;;;;;;;;;;11.50;61.70;;;;;;4130363;28;20290;-84
2023/05/04 09:30:58;;;;;;;;;;;11.50;60.90;;;;;;4129610;28;19914;-83
2023/05/04 09:32:59;;;;;;;;;;;11.50;60.70;;;;;;4130403;28;19922;-83
2023/05/04 09:35:00;;;;;;;;;;;11.60;60.60;;;;;;4131285;28;19922;-83
2023/05/04 09:37:01;;;;;;;;;;;11.40;59.60;;;;;;4136183;28;19984;-83
2023/05/04 09:39:09;;;;;;;;;;;11.50;59.90;;;;;;4127130;28;19918;-84
2023/05/04 09:41:10;;;;;;;;;;;11.50;60.50;;;;;;4124481;28;19976;-84
2023/05/04 09:43:12;;;;;;;;;;;11.50;59.80;;;;;;4128397;28;19917;-84
2023/05/04 09:45:13;;;;;;;;;;;11.50;59.20;;;;;;4133494;28;20743;-83
2023/05/04 09:47:32;;;;;;;;;;;11.50;57.70;;;;;;4147334;28;19913;-85
2023/05/04 09:49:34;;;;;;;;;;;11.50;57.90;;;;;;4146041;28;20387;-84
2023/05/04 09:51:34;;;;;;;;;;;11.50;59.30;;;;;;4129779;28;19922;-84
2023/05/04 09:53:36;;;;;;;;;;;11.50;59.40;;;;;;4149775;28;20272;-84
2023/05/04 09:55:39;;;;;;;;;;;11.40;58.40;;;;;;4147993;28;19956;-85
2023/05/04 09:57:43;;;;;;;;;;;11.50;57.60;;;;;;4129751;28;20264;-84
2023/05/04 09:59:44;;;;;;;;;;;11.50;56.50;;;;;;4114542;28;19918;-84
2023/05/04 10:01:45;;;;;;;;;;;11.50;56.60;;;;;;4130732;28;19972;-84
2023/05/04 10:03:46;;;;;;;;;;;11.60;56.80;;;;;;4147404;28;20088;-85
2023/05/04 10:05:47;;;;;;;;;;;11.70;56.60;;;;;;4146944;28;19924;-83
2023/05/04 10:07:48;;;;;;;;;;;11.60;54.70;;;;;;4130641;28;19962;-84
2023/05/04 10:09:50;;;;;;;;;;;11.70;55.30;;;;;;4149292;28;19914;-83
2023/05/04 10:11:50;;;;;;;;;;;11.70;55.50;;;;;;4118492;28;20344;-83
2023/05/04 10:13:53;;;;;;;;;;;11.80;55.10;;;;;;4147266;28;19948;-84
2023/05/04 10:16:00;;;;;;;;;;;11.80;55.50;;;;;;4149061;28;20383;-84
2023/05/04 10:18:16;;;;;;;;;;;11.80;55.40;;;;;;4147456;28;19925;-85
2023/05/04 10:20:32;;;;;;;;;;;11.80;55.10;;;;;;4130559;28;20465;-84
2023/05/04 10:22:32;;;;;;;;;;;11.90;56.20;;;;;;4145522;28;19928;-84
2023/05/04 10:24:35;;;;;;;;;;;11.90;55.20;;;;;;4146532;28;19944;-83
2023/05/04 10:26:42;;;;;;;;;;;12.00;54.20;;;;;;4145932;28;20442;-83
2023/05/04 10:28:46;;;;;;;;;;;12.00;53.00;;;;;;4139101;28;19917;-83
2023/05/04 10:30:47;;;;;;;;;;;12.10;51.20;;;;;;4128234;28;19950;-83
2023/05/04 10:32:56;;;;;;;;;;;12.10;52.00;;;;;;4142747;28;20379;-83
2023/05/04 10:35:06;;;;;;;;;;;12.00;49.70;;;;;;4147145;28;20271;-84
2023/05/04 10:37:14;;;;;;;;;;;12.10;49.20;;;;;;4136817;28;19952;-83
2023/05/04 10:39:19;;;;;;;;;;;12.10;48.60;;;;;;4136713;28;20008;-83
2023/05/04 10:41:21;;;;;;;;;;;12.10;47.20;;;;;;4144742;28;19927;-85
2023/05/04 10:43:23;;;;;;;;;;;12.10;48.20;;;;;;4133831;28;20356;-84
2023/05/04 10:45:40;;;;;;;;;;;12.00;48.20;;;;;;4125997;28;19917;-85
2023/05/04 10:47:41;;;;;;;;;;;12.10;47.80;;;;;;4132124;28;20008;-84
2023/05/04 10:49:42;;;;;;;;;;;12.10;47.80;;;;;;4142100;28;19964;-84
2023/05/04 10:51:42;;;;;;;;;;;12.10;48.00;;;;;;4121422;28;19983;-84
2023/05/04 10:53:43;;;;;;;;;;;12.10;48.30;;;;;;4110065;28;19981;-84
2023/05/04 10:55:45;;;;;;;;;;;12.10;47.70;;;;;;4131013;28;19924;-84
2023/05/04 10:57:49;;;;;;;;;;;12.20;49.40;;;;;;4127702;28;19924;-84
2023/05/04 10:59:58;;;;;;;;;;;12.10;47.80;;;;;;4126457;28;20340;-84
2023/05/04 11:02:02;;;;;;;;;;;12.10;49.50;;;;;;4142119;28;19936;-84
2023/05/04 11:04:03;;;;;;;;;;;12.20;50.10;;;;;;4123859;28;19918;-84
2023/05/04 11:06:13;;;;;;;;;;;12.10;48.00;;;;;;4128854;28;20690;-86
2023/05/04 11:08:15;;;;;;;;;;;12.10;48.70;;;;;;4123584;28;21373;-84
2023/05/04 11:10:22;;;;;;;;;;;12.10;48.20;;;;;;4141075;28;20116;-84
2023/05/04 11:12:23;;;;;;;;;;;12.20;49.40;;;;;;4143686;28;19976;-84
2023/05/04 11:14:27;;;;;;;;;;;12.20;50.70;;;;;;4149420;28;19913;-83
2023/05/04 11:16:28;;;;;;;;;;;12.20;48.20;;;;;;4119352;28;20775;-85
2023/05/04 11:18:39;;;;;;;;;;;12.20;50.60;;;;;;4126779;28;19922;-84
2023/05/04 11:20:41;;;;;;;;;;;12.20;51.70;;;;;;4141736;28;20007;-86
2023/05/04 11:22:42;;;;;;;;;;;12.30;49.90;;;;;;4110359;28;20384;-84
2023/05/04 11:24:43;;;;;;;;;;;12.30;50.80;;;;;;4146589;28;19932;-84
2023/05/04 11:26:47;;;;;;;;;;;12.40;51.80;;;;;;4124384;28;19977;-84
2023/05/04 11:28:58;;;;;;;;;;;12.50;48.90;;;;;;4128984;28;19925;-84
2023/05/04 11:30:59;;;;;;;;;;;12.50;50.50;;;;;;4112921;28;19915;-84
2023/05/04 11:33:00;;;;;;;;;;;12.50;51.40;;;;;;4126356;28;20028;-84
2023/05/04 11:35:02;;;;;;;;;;;12.50;50.30;;;;;;4141944;28;19922;-85
2023/05/04 11:37:04;;;;;;;;;;;12.60;49.40;;;;;;4138436;28;19922;-84
2023/05/04 11:39:07;;;;;;;;;;;12.50;48.60;;;;;;4139118;28;19980;-85
2023/05/04 11:41:07;;;;;;;;;;;12.50;50.10;;;;;;4146620;28;20396;-84
2023/05/04 11:43:08;;;;;;;;;;;12.50;49.80;;;;;;4128743;28;19929;-85
2023/05/04 11:45:11;;;;;;;;;;;12.50;51.00;;;;;;4139157;28;19928;-85
2023/05/04 11:47:12;;;;;;;;;;;12.50;50.60;;;;;;4129337;28;19913;-85
2023/05/04 11:49:13;;;;;;;;;;;12.60;50.80;;;;;;4107113;28;19918;-85
2023/05/04 11:51:14;;;;;;;;;;;12.60;49.90;;;;;;4129177;28;19924;-84
2023/05/04 11:53:20;;;;;;;;;;;12.50;48.20;;;;;;4139720;28;19961;-84
2023/05/04 11:55:24;;;;;;;;;;;12.40;47.10;;;;;;4127638;28;19926;-85
2023/05/04 11:57:25;;;;;;;;;;;12.40;48.40;;;;;;4131696;28;20076;-85
2023/05/04 11:59:26;;;;;;;;;;;12.30;48.90;;;;;;4109995;28;20311;-85
2023/05/04 12:01:33;;;;;;;;;;;12.20;49.10;;;;;;4127376;28;19952;-83
2023/05/04 12:03:38;;;;;;;;;;;12.20;48.00;;;;;;4131167;28;20432;-85
2023/05/04 12:05:59;;;;;;;;;;;12.20;49.40;;;;;;4130505;28;20526;-86
2023/05/04 12:08:25;;;;;;;;;;;12.30;50.30;;;;;;4125456;28;20446;-85
2023/05/04 12:10:45;;;;;;;;;;;12.30;50.00;;;;;;4142829;28;20414;-85
2023/05/04 12:13:14;;;;;;;;;;;12.20;48.60;;;;;;4140231;28;20401;-85
2023/05/04 12:15:35;;;;;;;;;;;12.20;50.00;;;;;;4127855;28;20288;-85
2023/05/04 12:17:56;;;;;;;;;;;12.20;50.50;;;;;;4140223;28;19922;-84
2023/05/04 12:20:21;;;;;;;;;;;12.30;50.20;;;;;;4129808;28;19918;-84
2023/05/04 12:22:42;;;;;;;;;;;12.30;50.30;;;;;;4142724;28;20493;-86
2023/05/04 12:25:06;;;;;;;;;;;12.20;51.10;;;;;;4139965;28;20549;-84
2023/05/04 12:27:13;;;;;;;;;;;12.20;52.60;;;;;;4124052;28;20343;-85
2023/05/04 12:29:17;;;;;;;;;;;12.30;52.80;;;;;;4139051;28;20260;-85
2023/05/04 12:31:18;;;;;;;;;;;12.20;51.80;;;;;;4127611;28;20008;-86
2023/05/04 12:33:18;;;;;;;;;;;12.20;51.20;;;;;;4124540;28;19917;-85
2023/05/04 12:35:22;;;;;;;;;;;12.30;51.90;;;;;;4140675;28;20008;-84
2023/05/04 12:37:22;;;;;;;;;;;12.20;52.40;;;;;;4139569;28;20666;-85
2023/05/04 12:39:23;;;;;;;;;;;12.20;51.10;;;;;;4122991;28;19973;-84
2023/05/04 12:41:24;;;;;;;;;;;12.20;50.00;;;;;;4138332;28;19963;-85
2023/05/04 12:43:24;;;;;;;;;;;12.30;51.50;;;;;;4122167;28;19922;-84
2023/05/04 12:45:25;;;;;;;;;;;12.30;52.40;;;;;;4140260;28;19922;-85
2023/05/04 12:47:26;;;;;;;;;;;12.30;51.80;;;;;;4109866;28;19997;-85
2023/05/04 12:49:26;;;;;;;;;;;12.20;51.90;;;;;;4121320;28;20002;-84
2023/05/04 12:51:27;;;;;;;;;;;12.20;51.00;;;;;;4104594;28;20675;-85
2023/05/04 12:54:05;;;;;;;;;;;12.10;50.40;;;;;;4127408;28;19934;-85
2023/05/04 12:59:40;;;;;;;;;;;12.10;52.20;;;;;;4136148;28;20370;-85
2023/05/04 13:02:01;;;;;;;;;;;12.10;51.70;;;;;;4126697;28;21002;-85
2023/05/04 13:04:22;;;;;;;;;;;12.10;51.60;;;;;;4142036;28;20455;-85
2023/05/04 13:06:43;;;;;;;;;;;12.00;51.70;;;;;;4136130;28;19917;-84
2023/05/04 13:09:04;;;;;;;;;;;12.10;52.50;;;;;;4138431;28;19925;-84